AQQ10 IFIS: Internet Flight Information System
logo dgac
Domingo 21 de Abril del 2024
Buscar por aerodromo o helipuerto
Ingrese nombre de aeródromo, localidad o designador OACI:
METAR del 21-04-2024 a las 07:00 UTC
Para mayor información visite www.meteochile.gob.cl
METAR SCAR 210700Z 25002KT CAVOK 19/13 Q1015
Viento: dirección 250 grados, velocidad 2 nudos
Visibilidad: 10 km o más,
    sin nubes bajo los 5.000 pies o bajo del MSA (Mínimo de Seguridad del Aeródromo),
    sin cumulonimbus, y sin fenómenos de tiempo significativo en el aeródromo o alrededores
Temperatura: 19 °C
Rocío: 13 °C
Humedad_relativa: 68%
Presión: 1015 hPa
METAR del 21-04-2024 a las 06:00 UTC
Para mayor información visite www.meteochile.gob.cl
METAR SCAR 210600Z 09004KT CAVOK 19/12 Q1015
Viento: dirección 090 grados, velocidad 4 nudos
Visibilidad: 10 km o más,
    sin nubes bajo los 5.000 pies o bajo del MSA (Mínimo de Seguridad del Aeródromo),
    sin cumulonimbus, y sin fenómenos de tiempo significativo en el aeródromo o alrededores
Temperatura: 19 °C
Rocío: 12 °C
Humedad_relativa: 64%
Presión: 1015 hPa
METAR del 21-04-2024 a las 05:00 UTC
Para mayor información visite www.meteochile.gob.cl
METAR SCAR 210500Z 08004KT CAVOK 19/13 Q1016
Viento: dirección 080 grados, velocidad 4 nudos
Visibilidad: 10 km o más,
    sin nubes bajo los 5.000 pies o bajo del MSA (Mínimo de Seguridad del Aeródromo),
    sin cumulonimbus, y sin fenómenos de tiempo significativo en el aeródromo o alrededores
Temperatura: 19 °C
Rocío: 13 °C
Humedad_relativa: 68%
Presión: 1016 hPa
METAR del 21-04-2024 a las 04:00 UTC
Para mayor información visite www.meteochile.gob.cl
METAR SCAR 210400Z 09003KT CAVOK 19/13 Q1016
Viento: dirección 090 grados, velocidad 3 nudos
Visibilidad: 10 km o más,
    sin nubes bajo los 5.000 pies o bajo del MSA (Mínimo de Seguridad del Aeródromo),
    sin cumulonimbus, y sin fenómenos de tiempo significativo en el aeródromo o alrededores
Temperatura: 19 °C
Rocío: 13 °C
Humedad_relativa: 68%
Presión: 1016 hPa
METAR del 21-04-2024 a las 03:00 UTC
Para mayor información visite www.meteochile.gob.cl
METAR SCAR 210300Z 35004KT CAVOK 19/13 Q1016
Viento: dirección 350 grados, velocidad 4 nudos
Visibilidad: 10 km o más,
    sin nubes bajo los 5.000 pies o bajo del MSA (Mínimo de Seguridad del Aeródromo),
    sin cumulonimbus, y sin fenómenos de tiempo significativo en el aeródromo o alrededores
Temperatura: 19 °C
Rocío: 13 °C
Humedad_relativa: 68%
Presión: 1016 hPa
METAR del 21-04-2024 a las 02:00 UTC
Para mayor información visite www.meteochile.gob.cl
METAR SCAR 210200Z 32004KT CAVOK 20/14 Q1016
Viento: dirección 320 grados, velocidad 4 nudos
Visibilidad: 10 km o más,
    sin nubes bajo los 5.000 pies o bajo del MSA (Mínimo de Seguridad del Aeródromo),
    sin cumulonimbus, y sin fenómenos de tiempo significativo en el aeródromo o alrededores
Temperatura: 20 °C
Rocío: 14 °C
Humedad_relativa: 68%
Presión: 1016 hPa
METAR del 21-04-2024 a las 01:00 UTC
Para mayor información visite www.meteochile.gob.cl
METAR SCAR 210100Z 29002KT CAVOK 21/15 Q1016
Viento: dirección 290 grados, velocidad 2 nudos
Visibilidad: 10 km o más,
    sin nubes bajo los 5.000 pies o bajo del MSA (Mínimo de Seguridad del Aeródromo),
    sin cumulonimbus, y sin fenómenos de tiempo significativo en el aeródromo o alrededores
Temperatura: 21 °C
Rocío: 15 °C
Humedad_relativa: 69%
Presión: 1016 hPa
METAR del 21-04-2024 a las 00:00 UTC
Para mayor información visite www.meteochile.gob.cl
METAR SCAR 210000Z 12002KT CAVOK 21/15 Q1015
Viento: dirección 120 grados, velocidad 2 nudos
Visibilidad: 10 km o más,
    sin nubes bajo los 5.000 pies o bajo del MSA (Mínimo de Seguridad del Aeródromo),
    sin cumulonimbus, y sin fenómenos de tiempo significativo en el aeródromo o alrededores
Temperatura: 21 °C
Rocío: 15 °C
Humedad_relativa: 69%
Presión: 1015 hPa
METAR del 20-04-2024 a las 22:00 UTC
Para mayor información visite www.meteochile.gob.cl
METAR SCAR 202200Z 18003KT CAVOK 21/15 Q1015
Viento: dirección 180 grados, velocidad 3 nudos
Visibilidad: 10 km o más,
    sin nubes bajo los 5.000 pies o bajo del MSA (Mínimo de Seguridad del Aeródromo),
    sin cumulonimbus, y sin fenómenos de tiempo significativo en el aeródromo o alrededores
Temperatura: 21 °C
Rocío: 15 °C
Humedad_relativa: 69%
Presión: 1015 hPa
METAR del 20-04-2024 a las 21:00 UTC
Para mayor información visite www.meteochile.gob.cl
METAR SCAR 202100Z 20009KT CAVOK 22/15 Q1013
Viento: dirección 200 grados, velocidad 9 nudos
Visibilidad: 10 km o más,
    sin nubes bajo los 5.000 pies o bajo del MSA (Mínimo de Seguridad del Aeródromo),
    sin cumulonimbus, y sin fenómenos de tiempo significativo en el aeródromo o alrededores
Temperatura: 22 °C
Rocío: 15 °C
Humedad_relativa: 65%
Presión: 1013 hPa